createdAt,value
2018-03-01T00:01:10.940Z,22.50
2018-03-01T00:03:38.475Z,22.43
2018-03-01T00:06:06.058Z,21.67
2018-03-01T00:08:33.600Z,22.00
2018-03-01T00:11:01.172Z,21.23
2018-03-01T00:13:28.722Z,21.60
2018-03-01T00:15:56.293Z,22.37
2018-03-01T00:18:23.827Z,23.07
2018-03-01T00:20:51.364Z,21.20
2018-03-01T00:23:18.916Z,21.13
2018-03-01T00:25:46.439Z,22.67
2018-03-01T00:28:14.090Z,21.67
2018-03-01T00:30:42.399Z,21.50
2018-03-01T00:33:09.975Z,23.17
2018-03-01T00:35:37.532Z,21.50
2018-03-01T00:38:05.096Z,21.33
2018-03-01T00:40:32.637Z,20.47
2018-03-01T00:43:00.181Z,20.40
2018-03-01T00:45:27.778Z,21.73
2018-03-01T00:47:55.310Z,22.13
2018-03-01T00:50:22.867Z,21.60
2018-03-01T00:52:50.407Z,22.27
2018-03-01T00:55:17.969Z,22.23
2018-03-01T00:57:45.496Z,22.17
2018-03-01T01:00:13.060Z,20.77
2018-03-01T01:02:40.600Z,20.77
2018-03-01T01:05:08.122Z,22.40
2018-03-01T01:07:35.703Z,21.93
2018-03-01T01:10:03.267Z,22.40
2018-03-01T01:12:30.831Z,20.27
2018-03-01T01:14:58.363Z,22.30
2018-03-01T01:17:25.980Z,22.23
2018-03-01T01:19:53.521Z,22.08
2018-03-01T01:22:21.055Z,20.17
2018-03-01T01:24:48.657Z,20.77
2018-03-01T01:27:16.186Z,22.95
2018-03-01T01:29:43.749Z,22.07
2018-03-01T01:32:11.279Z,22.25
2018-03-01T01:34:38.867Z,20.67
2018-03-01T01:37:06.409Z,21.83
2018-03-01T01:39:33.979Z,23.67
2018-03-01T01:42:01.548Z,22.93
2018-03-01T01:44:29.089Z,22.98
2018-03-01T01:46:56.669Z,24.23
2018-03-01T01:49:24.191Z,22.20
2018-03-01T01:51:51.754Z,22.20
2018-03-01T01:54:19.369Z,21.90
2018-03-01T01:56:46.936Z,23.90
2018-03-01T01:59:14.457Z,21.70
2018-03-01T02:01:42.610Z,22.15
2018-03-01T02:04:10.168Z,22.57
2018-03-01T02:06:37.708Z,21.67
2018-03-01T02:09:05.274Z,23.20
2018-03-01T02:11:32.817Z,23.37
2018-03-01T02:14:00.386Z,22.45
2018-03-01T02:16:27.907Z,21.83
2018-03-01T02:18:55.488Z,22.23
2018-03-01T02:21:23.019Z,21.93
2018-03-01T02:23:50.598Z,23.90
2018-03-01T02:26:18.123Z,21.93
2018-03-01T02:28:45.679Z,22.10
2018-03-01T02:31:13.253Z,21.57
2018-03-01T02:33:40.786Z,22.00
2018-03-01T02:36:08.405Z,21.60
2018-03-01T02:38:35.950Z,22.33
2018-03-01T02:41:03.523Z,22.40
2018-03-01T02:43:31.095Z,22.33
2018-03-01T02:45:58.637Z,21.75
2018-03-01T02:48:26.215Z,20.57
2018-03-01T02:50:53.799Z,21.13
2018-03-01T02:53:21.376Z,23.87
2018-03-01T02:55:48.912Z,21.07
2018-03-01T02:58:16.528Z,22.47
2018-03-01T03:00:44.189Z,21.50
2018-03-01T03:03:11.712Z,23.08
2018-03-01T03:05:39.264Z,21.77
2018-03-01T03:08:06.804Z,21.27
2018-03-01T03:10:34.368Z,22.60
2018-03-01T03:13:01.920Z,21.73
2018-03-01T03:15:29.477Z,21.27
2018-03-01T03:17:57.005Z,22.08
2018-03-01T03:20:24.606Z,21.35
2018-03-01T03:22:52.173Z,20.13
2018-03-01T03:25:19.706Z,21.67
2018-03-01T03:27:48.063Z,20.75
2018-03-01T03:30:15.614Z,22.60
2018-03-01T03:32:43.177Z,19.90
2018-03-01T03:35:10.712Z,21.47
2018-03-01T03:37:38.282Z,20.63
2018-03-01T03:40:05.849Z,21.37
2018-03-01T03:42:33.427Z,21.80
2018-03-01T03:45:00.951Z,21.55
2018-03-01T03:47:28.472Z,22.33
2018-03-01T03:49:56.049Z,20.08
2018-03-01T03:52:23.607Z,21.13
2018-03-01T03:54:51.175Z,20.05
2018-03-01T03:57:18.717Z,22.23
2018-03-01T03:59:46.312Z,21.10
2018-03-01T04:02:13.841Z,21.80
2018-03-01T04:04:41.376Z,21.27
2018-03-01T04:07:08.932Z,22.70
2018-03-01T04:09:36.472Z,22.57
2018-03-01T04:12:04.025Z,21.35
2018-03-01T04:14:31.563Z,21.77
2018-03-01T04:16:59.127Z,22.67
2018-03-01T04:19:26.673Z,22.20
2018-03-01T04:21:54.250Z,21.98
2018-03-01T04:24:21.779Z,22.27
2018-03-01T04:26:49.308Z,22.10
2018-03-01T04:29:16.863Z,21.60
2018-03-01T04:31:44.384Z,22.77
2018-03-01T04:34:11.959Z,21.67
2018-03-01T04:36:39.476Z,21.37
2018-03-01T04:39:07.034Z,22.80
2018-03-01T04:41:34.556Z,20.73
2018-03-01T04:44:02.132Z,21.10
2018-03-01T04:46:29.658Z,21.47
2018-03-01T04:48:57.190Z,22.33
2018-03-01T04:51:24.751Z,21.37
2018-03-01T04:53:52.280Z,20.02
2018-03-01T04:56:19.845Z,21.40
2018-03-01T04:58:47.366Z,20.47
2018-03-01T05:01:14.921Z,22.40
2018-03-01T05:03:43.317Z,21.33
2018-03-01T05:06:10.894Z,21.53
2018-03-01T05:08:38.428Z,21.43
2018-03-01T05:11:05.972Z,21.20
2018-03-01T05:13:33.536Z,20.63
2018-03-01T05:16:01.059Z,22.37
2018-03-01T05:18:28.636Z,19.83
2018-03-01T05:20:56.167Z,21.10
2018-03-01T05:23:23.744Z,20.67
2018-03-01T05:25:51.278Z,20.67
2018-03-01T05:28:18.854Z,20.30
2018-03-01T05:30:46.394Z,20.33
2018-03-01T05:33:13.947Z,20.15
2018-03-01T05:35:41.523Z,21.33
2018-03-01T05:38:09.052Z,20.53
2018-03-01T05:40:36.608Z,19.60
2018-03-01T05:43:04.138Z,20.23
2018-03-01T05:45:31.710Z,21.10
2018-03-01T05:47:59.241Z,21.50
2018-03-01T05:50:26.817Z,20.77
2018-03-01T05:52:54.346Z,21.53
2018-03-01T05:55:21.910Z,21.53
2018-03-01T05:57:49.434Z,21.87
2018-03-01T06:00:17.022Z,22.00
2018-03-01T06:02:44.595Z,21.73
2018-03-01T06:05:12.144Z,20.20
2018-03-01T06:07:39.729Z,20.70
2018-03-01T06:10:07.383Z,19.83
2018-03-01T06:12:34.956Z,19.08
2018-03-01T06:15:02.633Z,20.20
2018-03-01T06:17:30.236Z,21.10
2018-03-01T06:20:00.660Z,21.60
2018-03-01T06:22:31.182Z,20.60
2018-03-01T06:24:59.012Z,21.60
2018-03-01T06:27:26.548Z,20.27
2018-03-01T06:29:54.099Z,21.62
2018-03-01T06:32:21.663Z,22.43
2018-03-01T06:34:49.262Z,20.77
2018-03-01T06:37:16.791Z,21.27
2018-03-01T06:39:44.349Z,20.53
2018-03-01T06:42:11.911Z,20.77
2018-03-01T06:44:39.514Z,21.00
2018-03-01T06:47:07.083Z,21.05
2018-03-01T06:49:34.650Z,20.87
2018-03-01T06:52:02.204Z,20.70
2018-03-01T06:54:29.753Z,20.27
2018-03-01T06:56:57.366Z,20.47
2018-03-01T06:59:24.904Z,20.27
2018-03-01T07:01:52.482Z,19.90
2018-03-01T07:04:20.028Z,19.43
2018-03-01T07:06:47.608Z,20.20
2018-03-01T07:09:15.135Z,20.55
2018-03-01T07:11:42.697Z,20.00
2018-03-01T07:14:10.252Z,19.33
2018-03-01T07:16:37.792Z,21.33
2018-03-01T07:19:05.347Z,20.17
2018-03-01T07:21:32.895Z,20.57
2018-03-01T07:24:00.464Z,20.88
2018-03-01T07:26:28.746Z,20.00
2018-03-01T07:28:56.308Z,20.00
2018-03-01T07:31:23.837Z,18.67
2018-03-01T07:33:51.358Z,19.70
2018-03-01T07:36:18.903Z,19.67
2018-03-01T07:38:47.463Z,23.27
2018-03-01T07:41:15.028Z,20.47
2018-03-01T07:43:42.591Z,20.10
2018-03-01T07:46:10.172Z,20.13
2018-03-01T07:48:37.716Z,20.60
2018-03-01T07:51:05.344Z,19.83
2018-03-01T07:53:32.875Z,19.23
2018-03-01T07:56:00.448Z,19.20
2018-03-01T07:58:27.983Z,18.80
2018-03-01T08:00:55.504Z,19.63
2018-03-01T08:03:23.102Z,20.05
2018-03-01T08:05:50.614Z,20.30
2018-03-01T08:08:18.191Z,21.27
2018-03-01T08:10:45.712Z,19.73
2018-03-01T08:13:15.838Z,19.17
2018-03-01T08:15:43.550Z,19.07
2018-03-01T08:18:11.123Z,19.43
2018-03-01T08:20:38.648Z,19.47
2018-03-01T08:23:06.179Z,18.80
2018-03-01T08:25:33.727Z,20.70
2018-03-01T08:28:01.244Z,19.70
2018-03-01T08:30:28.791Z,19.57
2018-03-01T08:32:56.337Z,19.23
2018-03-01T08:35:23.907Z,19.20
2018-03-01T08:37:51.435Z,18.70
2018-03-01T08:40:18.994Z,18.23
2018-03-01T08:42:47.516Z,18.00
2018-03-01T08:45:15.047Z,18.47
2018-03-01T08:47:42.596Z,19.17
2018-03-01T08:50:10.128Z,19.63
2018-03-01T08:52:37.698Z,20.20
2018-03-01T08:55:05.263Z,18.58
2018-03-01T08:57:32.851Z,19.62
2018-03-01T09:00:00.385Z,20.08
2018-03-01T09:02:27.917Z,18.05
2018-03-01T09:04:55.669Z,18.53
2018-03-01T09:07:23.196Z,19.33
2018-03-01T09:09:50.746Z,18.57
2018-03-01T09:12:18.268Z,19.37
2018-03-01T09:14:45.820Z,20.30
2018-03-01T09:17:13.352Z,19.37
2018-03-01T09:19:40.915Z,19.73
2018-03-01T09:22:08.468Z,19.20
2018-03-01T09:24:36.054Z,18.40
2018-03-01T09:27:03.610Z,20.10
2018-03-01T09:29:31.140Z,20.93
2018-03-01T09:31:58.695Z,19.63
2018-03-01T09:34:26.223Z,20.47
2018-03-01T09:36:55.938Z,18.72
2018-03-01T09:39:23.492Z,19.85
2018-03-01T09:41:51.025Z,20.77
2018-03-01T09:44:18.591Z,19.90
2018-03-01T09:46:46.136Z,20.47
2018-03-01T09:49:13.780Z,21.40
2018-03-01T09:51:41.305Z,22.13
2018-03-01T09:54:08.884Z,20.27
2018-03-01T09:56:36.455Z,23.20
2018-03-01T09:59:03.979Z,21.42
2018-03-01T10:01:31.681Z,20.53
2018-03-01T10:03:59.216Z,19.83
2018-03-01T10:06:27.414Z,20.23
2018-03-01T10:08:54.973Z,20.07
2018-03-01T10:11:22.580Z,20.55
2018-03-01T10:13:50.116Z,19.67
2018-03-01T10:16:17.900Z,19.52
2018-03-01T10:18:45.488Z,18.50
2018-03-01T10:21:13.022Z,20.40
2018-03-01T10:23:40.632Z,19.77
2018-03-01T10:26:08.154Z,19.63
2018-03-01T10:28:38.668Z,20.00
2018-03-01T10:31:06.196Z,18.23
2018-03-01T10:33:39.332Z,18.55
2018-03-01T10:36:06.877Z,18.23
2018-03-01T10:38:34.420Z,19.73
2018-03-01T10:41:02.027Z,18.62
2018-03-01T10:43:29.560Z,19.50
2018-03-01T10:45:57.125Z,20.37
2018-03-01T10:48:24.659Z,19.77
2018-03-01T10:50:52.241Z,20.83
2018-03-01T10:53:19.785Z,18.73
2018-03-01T10:55:47.348Z,19.80
2018-03-01T10:58:14.924Z,19.63
2018-03-01T11:00:44.197Z,20.40
2018-03-01T11:03:11.756Z,19.83
2018-03-01T11:05:39.298Z,20.77
2018-03-01T11:08:06.900Z,19.87
2018-03-01T11:10:34.510Z,20.77
2018-03-01T11:13:02.065Z,21.85
2018-03-01T11:15:29.635Z,22.27
2018-03-01T11:17:57.163Z,21.50
2018-03-01T11:20:24.731Z,18.43
2018-03-01T11:22:52.259Z,20.50
2018-03-01T11:25:20.057Z,19.20
2018-03-01T11:27:47.726Z,21.33
2018-03-01T11:30:15.347Z,21.75
2018-03-01T11:32:42.896Z,20.00
2018-03-01T11:35:10.449Z,19.57
2018-03-01T11:37:38.016Z,19.10
2018-03-01T11:40:05.531Z,19.83
2018-03-01T11:42:33.108Z,20.87
2018-03-01T11:45:00.830Z,20.02
2018-03-01T11:47:28.391Z,21.23
2018-03-01T11:49:55.912Z,19.30
2018-03-01T11:52:23.495Z,20.57
2018-03-01T11:54:51.031Z,19.33
2018-03-01T11:57:23.504Z,19.87
2018-03-01T11:59:51.015Z,19.00
2018-03-01T12:02:19.551Z,19.52
2018-03-01T12:04:47.105Z,20.43
2018-03-01T12:07:14.661Z,20.57
2018-03-01T12:09:42.215Z,18.97
2018-03-01T12:12:09.764Z,19.73
2018-03-01T12:14:37.432Z,21.73
2018-03-01T12:17:05.052Z,20.77
2018-03-01T12:19:32.614Z,20.07
2018-03-01T12:22:00.182Z,19.80
2018-03-01T12:24:27.727Z,20.93
2018-03-01T12:26:55.268Z,20.47
2018-03-01T12:29:22.812Z,19.60
2018-03-01T12:31:50.482Z,19.23
2018-03-01T12:34:17.999Z,20.00
2018-03-01T12:36:47.021Z,19.93
2018-03-01T12:39:14.619Z,19.27
2018-03-01T12:41:42.187Z,19.27
2018-03-01T12:44:09.713Z,19.40
2018-03-01T12:46:37.297Z,19.37
2018-03-01T12:49:04.834Z,20.93
2018-03-01T12:51:32.369Z,20.83
2018-03-01T12:53:59.942Z,19.73
2018-03-01T12:56:27.488Z,20.50
2018-03-01T12:58:55.057Z,19.73
2018-03-01T13:01:22.601Z,20.95
2018-03-01T13:03:50.169Z,19.43
2018-03-01T13:06:18.917Z,21.00
2018-03-01T13:08:46.490Z,21.80
2018-03-01T13:11:14.019Z,20.60
2018-03-01T13:13:41.533Z,21.87
2018-03-01T13:16:09.092Z,20.07
2018-03-01T13:18:36.680Z,20.65
2018-03-01T13:21:07.808Z,20.00
2018-03-01T13:23:35.498Z,19.00
2018-03-01T13:26:03.057Z,21.00
2018-03-01T13:28:31.928Z,21.20
2018-03-01T13:31:10.317Z,18.93
2018-03-01T13:36:25.336Z,20.77
2018-03-01T13:38:59.940Z,19.53
2018-03-01T13:41:35.625Z,19.17
2018-03-01T13:44:09.176Z,19.67
2018-03-01T13:46:42.527Z,21.98
2018-03-01T13:49:14.877Z,19.63
2018-03-01T13:51:53.133Z,21.67
2018-03-01T13:54:27.849Z,20.37
2018-03-01T13:56:59.554Z,20.27
2018-03-01T13:59:32.211Z,20.00
2018-03-01T14:02:06.902Z,21.13
2018-03-01T14:04:42.188Z,20.87
2018-03-01T14:10:20.668Z,20.47
2018-03-01T14:12:57.181Z,19.73
2018-03-01T14:15:29.661Z,19.93
2018-03-01T14:18:08.111Z,20.43
2018-03-01T14:20:46.993Z,21.08
2018-03-01T14:26:41.329Z,18.90
2018-03-01T14:29:17.277Z,20.30
2018-03-01T14:31:52.391Z,19.62
2018-03-01T14:34:26.543Z,19.23
2018-03-01T14:36:59.741Z,19.77
2018-03-01T14:39:33.834Z,19.60
2018-03-01T14:42:07.654Z,19.80
2018-03-01T14:44:42.721Z,20.25
2018-03-01T14:47:15.278Z,19.33
2018-03-01T14:49:47.754Z,18.50
2018-03-01T14:52:19.674Z,19.60
2018-03-01T14:54:47.430Z,19.35
2018-03-01T14:57:15.831Z,19.00
2018-03-01T14:59:43.693Z,20.07
2018-03-01T15:02:11.519Z,19.37
2018-03-01T15:04:39.112Z,18.50
2018-03-01T15:07:06.879Z,19.23
2018-03-01T15:09:34.448Z,20.02
2018-03-01T15:12:01.976Z,18.47
2018-03-01T15:14:29.495Z,19.00
2018-03-01T15:16:57.064Z,19.57
2018-03-01T15:19:24.595Z,20.27
2018-03-01T15:21:52.743Z,19.10
2018-03-01T15:24:20.263Z,18.63
2018-03-01T15:26:47.849Z,19.50
2018-03-01T15:29:15.373Z,20.93
2018-03-01T15:31:42.945Z,21.50
2018-03-01T15:34:10.474Z,18.43
2018-03-01T15:36:38.054Z,20.33
2018-03-01T15:39:05.573Z,20.62
2018-03-01T15:41:33.107Z,22.45
2018-03-01T15:44:00.675Z,21.50
2018-03-01T15:46:28.210Z,21.08
2018-03-01T15:48:55.764Z,20.00
2018-03-01T15:51:23.378Z,20.87
2018-03-01T15:53:50.936Z,19.57
2018-03-01T15:56:18.548Z,20.27
2018-03-01T15:58:47.361Z,19.77
2018-03-01T16:01:15.415Z,19.90
2018-03-01T16:03:43.024Z,21.33
2018-03-01T16:06:10.577Z,21.12
2018-03-01T16:08:38.149Z,21.95
2018-03-01T16:11:05.687Z,19.15
2018-03-01T16:13:33.316Z,19.77
2018-03-01T16:16:00.836Z,20.55
2018-03-01T16:18:28.390Z,19.27
2018-03-01T16:20:55.915Z,21.77
2018-03-01T16:23:23.486Z,19.63
2018-03-01T16:25:51.352Z,20.47
2018-03-01T16:28:20.489Z,20.37
2018-03-01T16:30:49.251Z,20.50
2018-03-01T16:33:16.898Z,18.90
2018-03-01T16:35:44.427Z,18.67
2018-03-01T16:38:11.989Z,19.47
2018-03-01T16:40:39.510Z,24.67
2018-03-01T16:43:08.726Z,21.73
2018-03-01T16:45:38.418Z,20.77
2018-03-01T16:48:05.942Z,19.42
2018-03-01T16:50:33.497Z,20.67
2018-03-01T16:53:01.024Z,20.03
2018-03-01T16:55:28.591Z,17.80
2018-03-01T16:57:56.109Z,19.83
2018-03-01T17:00:23.680Z,19.60
2018-03-01T17:02:51.197Z,20.20
2018-03-01T17:05:18.888Z,18.87
2018-03-01T17:07:46.404Z,19.87
2018-03-01T17:10:13.923Z,19.23
2018-03-01T17:12:41.484Z,18.92
2018-03-01T17:15:09.008Z,21.07
2018-03-01T17:17:36.586Z,22.02
2018-03-01T17:20:04.142Z,19.53
2018-03-01T17:22:31.705Z,19.67
2018-03-01T17:24:59.296Z,21.15
2018-03-01T17:27:26.852Z,20.93
2018-03-01T17:29:54.396Z,19.50
2018-03-01T17:32:21.932Z,21.07
2018-03-01T17:34:49.483Z,20.80
2018-03-01T17:37:17.008Z,20.03
2018-03-01T17:39:44.556Z,19.93
2018-03-01T17:42:12.086Z,17.60
2018-03-01T17:44:39.637Z,20.33
2018-03-01T17:47:07.162Z,19.70
2018-03-01T17:49:34.722Z,18.52
2018-03-01T17:52:02.252Z,19.90
2018-03-01T17:54:29.824Z,20.15
2018-03-01T17:56:57.368Z,20.33
2018-03-01T17:59:24.933Z,18.17
2018-03-01T18:01:52.484Z,19.30
2018-03-01T18:04:20.050Z,21.20
2018-03-01T18:06:48.326Z,19.50
2018-03-01T18:09:15.881Z,20.30
2018-03-01T18:11:43.400Z,18.30
2018-03-01T18:14:10.945Z,18.83
2018-03-01T18:16:38.467Z,19.03
2018-03-01T18:19:06.449Z,18.90
2018-03-01T18:21:34.206Z,25.13
2018-03-01T18:24:01.773Z,25.87
2018-03-01T18:26:29.330Z,20.07
2018-03-01T18:28:56.888Z,19.70
2018-03-01T18:31:24.400Z,21.37
2018-03-01T18:33:52.720Z,19.53
2018-03-01T18:36:20.596Z,18.67
2018-03-01T18:38:48.152Z,18.80
2018-03-01T18:41:15.685Z,20.70
2018-03-01T18:43:43.439Z,19.43
2018-03-01T18:46:11.273Z,19.62
2018-03-01T18:48:38.927Z,19.30
2018-03-01T18:51:06.485Z,19.77
2018-03-01T18:53:34.025Z,18.65
2018-03-01T18:56:01.954Z,18.95
2018-03-01T18:58:29.486Z,19.70
2018-03-01T19:00:57.275Z,18.93
2018-03-01T19:03:24.813Z,20.90
2018-03-01T19:05:52.388Z,19.97
2018-03-01T19:08:19.977Z,18.90
2018-03-01T19:10:47.548Z,19.30
2018-03-01T19:13:15.121Z,19.43
2018-03-01T19:15:42.684Z,19.08
2018-03-01T19:18:10.315Z,17.93
2018-03-01T19:20:37.862Z,18.73
2018-03-01T19:23:05.536Z,18.83
2018-03-01T19:25:33.097Z,19.33
2018-03-01T19:28:00.631Z,18.37
2018-03-01T19:30:28.189Z,19.35
2018-03-01T19:32:56.167Z,18.43
2018-03-01T19:35:23.820Z,19.35
2018-03-01T19:37:51.344Z,18.37
2018-03-01T19:40:21.025Z,19.17
2018-03-01T19:42:48.672Z,18.30
2018-03-01T19:45:16.886Z,20.57
2018-03-01T19:47:44.475Z,18.53
2018-03-01T19:50:12.160Z,18.60
2018-03-01T19:52:39.914Z,19.90
2018-03-01T19:55:07.920Z,18.70
2018-03-01T19:57:35.436Z,19.27
2018-03-01T20:00:02.988Z,19.43
2018-03-01T20:02:30.511Z,19.70
2018-03-01T20:04:58.068Z,19.87
2018-03-01T20:07:28.964Z,19.23
2018-03-01T20:09:56.523Z,19.47
2018-03-01T20:12:24.057Z,19.63
2018-03-01T20:14:51.628Z,18.10
2018-03-01T20:17:19.142Z,19.07
2018-03-01T20:19:46.703Z,18.40
2018-03-01T20:22:14.261Z,19.73
2018-03-01T20:24:41.886Z,20.77
2018-03-01T20:27:09.446Z,20.60
2018-03-01T20:29:37.469Z,19.55
2018-03-01T20:32:06.732Z,20.00
2018-03-01T20:34:34.249Z,21.27
2018-03-01T20:37:01.807Z,20.63
2018-03-01T20:39:29.493Z,20.73
2018-03-01T20:41:57.261Z,19.40
2018-03-01T20:44:24.933Z,20.53
2018-03-01T20:46:52.487Z,18.40
2018-03-01T20:49:20.020Z,19.98
2018-03-01T20:51:47.694Z,20.03
2018-03-01T20:54:15.211Z,20.43
2018-03-01T20:56:42.813Z,19.47
2018-03-01T20:59:10.346Z,20.03
2018-03-01T21:01:37.907Z,20.20
2018-03-01T21:04:05.466Z,20.73
2018-03-01T21:06:33.152Z,19.57
2018-03-01T21:09:00.729Z,19.90
2018-03-01T21:11:28.260Z,23.63
2018-03-01T21:13:55.913Z,21.30
2018-03-01T21:16:24.400Z,20.60
2018-03-01T21:18:51.984Z,20.60
2018-03-01T21:21:19.525Z,20.70
2018-03-01T21:23:47.109Z,21.13
2018-03-01T21:26:14.739Z,20.67
2018-03-01T21:28:42.298Z,20.15
2018-03-01T21:31:09.868Z,20.37
2018-03-01T21:33:37.427Z,21.87
2018-03-01T21:36:04.991Z,21.42
2018-03-01T21:38:32.528Z,21.05
2018-03-01T21:41:00.124Z,22.03
2018-03-01T21:43:27.654Z,21.87
2018-03-01T21:45:55.244Z,21.70
2018-03-01T21:48:22.759Z,22.57
2018-03-01T21:50:50.292Z,22.47
2018-03-01T21:53:17.852Z,22.90
2018-03-01T21:55:45.366Z,24.13
2018-03-01T21:58:12.969Z,22.33
2018-03-01T22:00:40.491Z,22.37
2018-03-01T22:03:08.129Z,21.53
2018-03-01T22:05:35.658Z,22.70
2018-03-01T22:08:03.214Z,21.37
2018-03-01T22:10:30.736Z,21.83
2018-03-01T22:12:58.315Z,22.27
2018-03-01T22:15:25.835Z,22.40
2018-03-01T22:17:53.376Z,22.35
2018-03-01T22:20:20.920Z,22.87
2018-03-01T22:22:48.439Z,22.97
2018-03-01T22:25:15.986Z,22.93
2018-03-01T22:27:43.519Z,22.50
2018-03-01T22:30:11.072Z,23.92
2018-03-01T22:32:38.587Z,22.48
2018-03-01T22:35:06.154Z,22.27
2018-03-01T22:37:33.684Z,22.67
2018-03-01T22:40:02.420Z,21.83
2018-03-01T22:42:30.064Z,21.33
2018-03-01T22:44:57.592Z,23.53
2018-03-01T22:47:25.215Z,22.73
2018-03-01T22:49:52.736Z,22.80
2018-03-01T22:52:21.303Z,22.57
2018-03-01T22:54:48.833Z,21.97
2018-03-01T22:57:18.365Z,22.93
2018-03-01T22:59:45.874Z,22.53
2018-03-01T23:02:13.450Z,22.57
2018-03-01T23:04:40.967Z,22.30
2018-03-01T23:07:08.492Z,22.03
2018-03-01T23:09:36.037Z,27.23
2018-03-01T23:12:04.705Z,24.73
2018-03-01T23:14:32.351Z,23.97
2018-03-01T23:16:59.891Z,24.73
2018-03-01T23:19:27.441Z,24.77
2018-03-01T23:21:55.004Z,25.30
2018-03-01T23:24:22.605Z,23.73
2018-03-01T23:26:50.131Z,24.17
2018-03-01T23:29:17.706Z,25.07
2018-03-01T23:31:45.239Z,24.60
2018-03-01T23:34:12.775Z,25.70
2018-03-01T23:36:40.350Z,24.43
2018-03-01T23:39:07.923Z,25.08
2018-03-01T23:41:35.475Z,25.93
2018-03-01T23:44:03.016Z,25.90
2018-03-01T23:46:30.572Z,25.10
2018-03-01T23:48:58.103Z,26.17
2018-03-01T23:51:25.704Z,25.80
2018-03-01T23:53:53.253Z,26.40
2018-03-01T23:56:20.831Z,26.00
2018-03-01T23:58:48.359Z,24.57
